Time;durP1;ratioP1;P1;durP2;ratioP2;P2;SDS_P1;SDS_P2;PMS_P1;PMS_P2;Temp;Humidity;BMP_temperature;BMP_pressure;BME280_temperature;BME280_humidity;BME280_pressure;Samples;Min_cycle;Max_cycle;Signal;HPM_P1;HPM_P2
2021/05/09 00:00:50;;;;;;;39.45;24.63;;;307.20;1766.40;;;;;;5093946;28;20024;-68
2021/05/09 00:03:16;;;;;;;40.42;24.55;;;282.40;1766.40;;;;;;5094220;28;20416;-68
2021/05/09 00:05:42;;;;;;;41.13;26.73;;;282.50;1740.80;;;;;;5093900;28;20065;-68
2021/05/09 00:08:08;;;;;;;42.28;26.50;;;307.20;1766.40;;;;;;5093743;28;20039;-69
2021/05/09 00:10:34;;;;;;;38.25;22.58;;;282.40;1766.40;;;;;;5093835;28;20047;-68
2021/05/09 00:13:00;;;;;;;43.88;23.83;;;282.50;1740.80;;;;;;5093620;28;20127;-67
2021/05/09 00:15:26;;;;;;;35.10;21.45;;;282.50;1740.80;;;;;;5093927;28;20024;-69
2021/05/09 00:17:52;;;;;;;33.33;20.05;;;282.30;1766.40;;;;;;5093574;28;20538;-68
2021/05/09 00:20:19;;;;;;;39.92;23.20;;;282.30;1766.40;;;;;;5093538;28;20058;-69
2021/05/09 00:22:46;;;;;;;41.08;21.83;;;282.50;1740.80;;;;;;5093599;28;20055;-68
2021/05/09 00:25:12;;;;;;;28.20;19.20;;;282.40;1740.80;;;;;;5093740;28;20055;-68
2021/05/09 00:27:40;;;;;;;34.78;20.30;;;282.40;1740.80;;;;;;5093905;28;20073;-68
2021/05/09 00:30:07;;;;;;;35.97;20.48;;;282.50;1715.20;;;;;;5093410;28;20040;-68
2021/05/09 00:32:33;;;;;;;29.35;19.77;;;282.30;1740.80;;;;;;5093605;28;20040;-69
2021/05/09 00:34:59;;;;;;;33.20;19.08;;;282.30;1740.80;;;;;;5093517;28;20024;-68
2021/05/09 00:37:25;;;;;;;29.17;18.30;;;282.30;1766.40;;;;;;5093637;28;20024;-68
2021/05/09 00:39:51;;;;;;;29.00;18.35;;;282.30;1766.40;;;;;;5093512;28;20111;-68
2021/05/09 00:42:17;;;;;;;28.98;17.70;;;282.30;1766.40;;;;;;5093223;28;20157;-68
2021/05/09 00:44:43;;;;;;;33.70;20.10;;;282.20;1766.40;;;;;;5093695;28;20027;-69
2021/05/09 00:47:12;;;;;;;29.73;18.55;;;282.20;1766.40;;;;;;5093337;28;20028;-69
2021/05/09 00:49:39;;;;;;;29.98;19.80;;;282.10;1766.40;;;;;;5093679;28;20031;-68
2021/05/09 00:52:10;;;;;;;28.23;18.00;;;282.10;1766.40;;;;;;5093401;28;20040;-69
2021/05/09 00:54:51;;;;;;;30.95;17.42;;;282.10;1766.40;;;;;;5093576;28;20024;-69
2021/05/09 00:57:18;;;;;;;36.20;18.70;;;282.10;1766.40;;;;;;5093669;28;20028;-69
2021/05/09 00:59:47;;;;;;;32.28;19.35;;;281.90;1792.00;;;;;;5094297;28;20024;-69
2021/05/09 01:02:14;;;;;;;38.72;19.25;;;281.90;1792.00;;;;;;5094382;28;20055;-68
2021/05/09 01:04:41;;;;;;;30.63;18.27;;;281.80;1792.00;;;;;;5093308;28;20073;-68
2021/05/09 01:07:07;;;;;;;31.55;18.65;;;281.80;1792.00;;;;;;5093602;28;20036;-69
2021/05/09 01:09:34;;;;;;;25.60;17.55;;;281.80;1792.00;;;;;;5094643;28;20016;-69
2021/05/09 01:12:00;;;;;;;26.45;16.55;;;281.80;1817.60;;;;;;5097523;28;20408;-69
2021/05/09 01:14:26;;;;;;;29.83;17.42;;;281.80;1817.60;;;;;;5097675;28;20024;-69
2021/05/09 01:16:52;;;;;;;26.73;17.00;;;281.80;1792.00;;;;;;5097733;28;20035;-68
2021/05/09 01:19:18;;;;;;;25.60;17.70;;;281.90;1766.40;;;;;;5097276;28;20024;-68
2021/05/09 01:21:46;;;;;;;26.05;17.63;;;281.80;1792.00;;;;;;5097651;28;20028;-69
2021/05/09 01:24:12;;;;;;;24.13;17.05;;;281.80;1792.00;;;;;;5096922;28;20028;-68
2021/05/09 01:26:38;;;;;;;27.52;16.15;;;281.60;1817.60;;;;;;5097175;28;20063;-68
2021/05/09 01:29:04;;;;;;;26.75;16.58;;;281.70;1817.60;;;;;;5097635;28;20464;-68
2021/05/09 01:31:30;;;;;;;28.50;17.70;;;281.60;1817.60;;;;;;5095578;28;20043;-69
2021/05/09 01:33:56;;;;;;;27.80;17.35;;;281.70;1817.60;;;;;;5096999;28;20038;-69
2021/05/09 01:36:22;;;;;;;27.10;16.23;;;281.70;1817.60;;;;;;5096646;28;20028;-69
2021/05/09 01:38:48;;;;;;;23.58;16.60;;;281.70;1817.60;;;;;;5096818;28;20020;-68
2021/05/09 01:41:14;;;;;;;26.42;16.00;;;281.70;1792.00;;;;;;5096869;28;20066;-68
2021/05/09 01:43:40;;;;;;;27.58;17.25;;;281.70;1792.00;;;;;;5096435;28;20028;-69
2021/05/09 01:46:06;;;;;;;24.90;16.98;;;281.80;1792.00;;;;;;5097997;28;20048;-69
2021/05/09 01:48:32;;;;;;;27.33;16.95;;;281.80;1766.40;;;;;;5095158;28;20063;-69
2021/05/09 01:50:58;;;;;;;23.35;16.33;;;281.80;1792.00;;;;;;5096850;28;20106;-69
2021/05/09 01:53:24;;;;;;;24.92;16.15;;;281.70;1792.00;;;;;;5096155;28;20380;-69
2021/05/09 01:55:50;;;;;;;26.33;16.75;;;281.80;1792.00;;;;;;5096170;28;20468;-69
2021/05/09 01:58:16;;;;;;;27.42;16.98;;;281.80;1792.00;;;;;;5096826;28;20028;-69
2021/05/09 02:00:42;;;;;;;27.73;17.58;;;281.80;1792.00;;;;;;5095952;28;20036;-69
2021/05/09 02:03:08;;;;;;;23.75;17.65;;;281.60;1792.00;;;;;;5096344;28;20069;-68
2021/05/09 02:05:34;;;;;;;25.02;17.63;;;281.60;1792.00;;;;;;5096016;28;20020;-69
2021/05/09 02:08:00;;;;;;;32.95;19.00;;;281.60;1792.00;;;;;;5095820;28;20028;-69
2021/05/09 02:10:25;;;;;;;26.23;17.52;;;281.60;1792.00;;;;;;5096043;28;20055;-69
2021/05/09 02:12:51;;;;;;;26.55;17.58;;;281.60;1766.40;;;;;;5096488;28;20036;-69
2021/05/09 02:15:17;;;;;;;31.63;18.77;;;281.70;1766.40;;;;;;5096055;28;20042;-69
2021/05/09 02:17:43;;;;;;;27.85;19.05;;;281.80;1766.40;;;;;;5095712;28;20441;-69
2021/05/09 02:20:10;;;;;;;29.77;19.67;;;281.70;1766.40;;;;;;5095566;28;20369;-69
2021/05/09 02:22:36;;;;;;;30.65;19.98;;;281.70;1766.40;;;;;;5095866;28;20419;-69
2021/05/09 02:25:02;;;;;;;34.55;21.58;;;281.80;1766.40;;;;;;5095834;28;20081;-68
2021/05/09 02:27:28;;;;;;;32.75;22.38;;;281.80;1740.80;;;;;;5095449;28;20115;-68
2021/05/09 02:29:54;;;;;;;31.77;20.52;;;281.70;1766.40;;;;;;5096446;28;20074;-69
2021/05/09 02:32:20;;;;;;;33.00;22.48;;;281.80;1740.80;;;;;;5095451;28;20093;-70
2021/05/09 02:34:46;;;;;;;38.08;24.65;;;281.60;1740.80;;;;;;5095555;28;20028;-69
2021/05/09 02:37:12;;;;;;;39.92;24.35;;;281.60;1766.40;;;;;;5095648;28;20024;-69
2021/05/09 02:39:37;;;;;;;36.63;22.95;;;281.60;1792.00;;;;;;5095248;28;20020;-70
2021/05/09 02:42:04;;;;;;;34.95;22.60;;;281.60;1792.00;;;;;;5095403;28;20039;-69
2021/05/09 02:44:30;;;;;;;39.40;22.58;;;256.90;1740.80;;;;;;5095121;28;20024;-69
2021/05/09 02:46:56;;;;;;;32.58;21.23;;;256.80;1766.40;;;;;;5095384;28;20028;-69
2021/05/09 02:49:22;;;;;;;33.13;20.58;;;256.80;1766.40;;;;;;5095058;28;20028;-69
2021/05/09 02:51:48;;;;;;;28.88;18.38;;;256.80;1766.40;;;;;;5095081;28;20067;-69
2021/05/09 02:54:13;;;;;;;29.35;18.85;;;256.80;1766.40;;;;;;5095265;28;20032;-69
2021/05/09 02:56:39;;;;;;;35.20;19.42;;;256.60;1792.00;;;;;;5095724;28;20415;-69
2021/05/09 02:59:05;;;;;;;31.50;18.70;;;256.70;1766.40;;;;;;5095124;28;20104;-69
2021/05/09 03:01:31;;;;;;;29.15;17.70;;;256.50;1792.00;;;;;;5094708;28;20385;-69
2021/05/09 03:03:57;;;;;;;29.80;19.02;;;256.40;1792.00;;;;;;5094732;28;20036;-69
2021/05/09 03:06:23;;;;;;;32.40;16.88;;;256.40;1792.00;;;;;;5094799;28;20112;-69
2021/05/09 03:08:49;;;;;;;32.08;17.70;;;256.50;1792.00;;;;;;5094658;28;20028;-69
2021/05/09 03:11:14;;;;;;;38.53;17.58;;;256.60;1766.40;;;;;;5095053;28;20083;-68
2021/05/09 03:13:40;;;;;;;32.08;17.08;;;256.50;1792.00;;;;;;5094658;28;20077;-68
2021/05/09 03:16:06;;;;;;;31.65;16.30;;;256.50;1792.00;;;;;;5094952;28;20036;-69
2021/05/09 03:18:32;;;;;;;32.95;15.30;;;256.50;1792.00;;;;;;5094639;28;20028;-69
2021/05/09 03:20:58;;;;;;;32.80;17.08;;;256.60;1766.40;;;;;;5094521;28;20108;-68
2021/05/09 03:23:24;;;;;;;28.42;16.10;;;256.70;1766.40;;;;;;5095066;28;20028;-68
2021/05/09 03:25:50;;;;;;;28.02;16.55;;;256.70;1766.40;;;;;;5094786;28;20043;-69
2021/05/09 03:28:17;;;;;;;27.77;16.73;;;256.70;1766.40;;;;;;5093132;28;20472;-68
2021/05/09 03:30:42;;;;;;;29.20;16.63;;;256.70;1766.40;;;;;;5094375;28;20028;-68
2021/05/09 03:33:08;;;;;;;30.65;17.98;;;256.60;1766.40;;;;;;5093963;28;20049;-68
2021/05/09 03:35:34;;;;;;;34.65;17.98;;;256.60;1792.00;;;;;;5094595;28;20039;-68
2021/05/09 03:38:01;;;;;;;33.88;19.20;;;256.60;1766.40;;;;;;5094498;28;20495;-68
2021/05/09 03:40:27;;;;;;;30.95;18.88;;;256.70;1766.40;;;;;;5094455;28;20034;-68
2021/05/09 03:42:53;;;;;;;33.47;17.63;;;256.60;1766.40;;;;;;5094487;28;20372;-68
2021/05/09 03:45:19;;;;;;;30.75;17.33;;;256.60;1766.40;;;;;;5094302;28;20020;-68
2021/05/09 03:47:45;;;;;;;32.85;18.42;;;256.60;1766.40;;;;;;5092896;28;20130;-68
2021/05/09 03:50:11;;;;;;;29.55;17.60;;;256.60;1766.40;;;;;;5094331;28;20439;-68
2021/05/09 03:52:37;;;;;;;29.25;17.73;;;256.60;1740.80;;;;;;5093980;28;20476;-68
2021/05/09 03:55:04;;;;;;;27.40;17.52;;;256.70;1766.40;;;;;;5094048;28;20027;-68
2021/05/09 03:57:29;;;;;;;30.27;17.23;;;256.70;1766.40;;;;;;5094760;28;20024;-69
2021/05/09 03:59:55;;;;;;;29.30;15.50;;;256.70;1740.80;;;;;;5094392;28;20031;-68
2021/05/09 04:02:22;;;;;;;26.02;15.90;;;256.80;1766.40;;;;;;5093756;28;20476;-68
2021/05/09 04:04:47;;;;;;;31.65;17.38;;;256.80;1766.40;;;;;;5092722;28;20395;-68
2021/05/09 04:07:13;;;;;;;33.67;16.95;;;256.80;1740.80;;;;;;5094046;28;20028;-69
2021/05/09 04:09:40;;;;;;;32.10;17.13;;;256.70;1740.80;;;;;;5092876;28;20506;-68
2021/05/09 04:12:08;;;;;;;30.67;16.25;;;256.80;1740.80;;;;;;5093855;28;20472;-68
2021/05/09 04:14:34;;;;;;;29.45;15.65;;;256.70;1740.80;;;;;;5094118;28;20024;-68
2021/05/09 04:17:00;;;;;;;28.60;16.90;;;256.70;1740.80;;;;;;5093686;28;20034;-70
2021/05/09 04:19:26;;;;;;;27.20;15.45;;;256.80;1766.40;;;;;;5094386;28;20031;-69
2021/05/09 04:21:52;;;;;;;28.63;16.52;;;256.80;1740.80;;;;;;5093930;28;20030;-69
2021/05/09 04:24:18;;;;;;;33.53;17.05;;;256.90;1740.80;;;;;;5093600;28;20024;-69
2021/05/09 04:26:44;;;;;;;30.45;17.95;;;256.90;1740.80;;;;;;5093829;28;20035;-69
2021/05/09 04:29:10;;;;;;;30.88;16.75;;;256.90;1740.80;;;;;;5094246;28;20020;-69
2021/05/09 04:31:36;;;;;;;29.48;17.98;;;256.90;1766.40;;;;;;5093597;28;20115;-69
2021/05/09 04:34:02;;;;;;;32.35;18.00;;;256.90;1740.80;;;;;;5094797;28;20479;-69
2021/05/09 04:36:28;;;;;;;30.02;17.10;;;256.90;1766.40;;;;;;5092270;28;20020;-69
2021/05/09 04:38:54;;;;;;;31.35;18.25;;;281.60;1792.00;;;;;;5093731;28;20043;-69
2021/05/09 04:41:19;;;;;;;27.77;16.85;;;281.60;1766.40;;;;;;5093881;28;20038;-69
2021/05/09 04:43:45;;;;;;;36.35;18.50;;;281.70;1792.00;;;;;;5094322;28;20024;-69
2021/05/09 04:46:11;;;;;;;27.77;16.67;;;281.80;1740.80;;;;;;5097629;28;20027;-69
2021/05/09 04:48:37;;;;;;;29.40;17.48;;;281.90;1766.40;;;;;;5097377;28;20036;-69
2021/05/09 04:51:03;;;;;;;35.05;18.08;;;281.90;1766.40;;;;;;5097290;28;20040;-69
2021/05/09 04:53:36;;;;;;;30.65;18.27;;;282.10;1740.80;;;;;;5097579;28;20120;-69
2021/05/09 04:56:06;;;;;;;29.10;18.02;;;282.10;1740.80;;;;;;5097578;28;20032;-69
2021/05/09 04:58:34;;;;;;;31.52;17.75;;;282.20;1740.80;;;;;;5096283;28;20067;-69
2021/05/09 05:01:02;;;;;;;33.80;18.33;;;282.30;1740.80;;;;;;5096762;28;20110;-69
2021/05/09 05:03:29;;;;;;;29.30;18.25;;;282.20;1740.80;;;;;;5097139;28;20080;-69
2021/05/09 05:05:55;;;;;;;35.08;18.88;;;282.30;1740.80;;;;;;5097089;28;20027;-69
2021/05/09 05:08:21;;;;;;;36.65;19.67;;;282.40;1715.20;;;;;;5097215;28;20021;-69
2021/05/09 05:10:49;;;;;;;31.58;18.08;;;282.50;1740.80;;;;;;5096622;28;20047;-70
2021/05/09 05:13:24;;;;;;;35.35;19.80;;;282.50;1740.80;;;;;;5096965;28;20484;-69
2021/05/09 05:15:53;;;;;;;34.45;19.02;;;307.20;1766.40;;;;;;5097212;28;20016;-69
2021/05/09 05:18:20;;;;;;;40.63;19.92;;;282.50;1740.80;;;;;;5096859;28;20024;-69
2021/05/09 05:20:47;;;;;;;44.03;22.95;;;307.20;1740.80;;;;;;5096751;28;20077;-69
2021/05/09 05:23:14;;;;;;;41.55;21.58;;;307.30;1740.80;;;;;;5095536;28;20111;-69
2021/05/09 05:25:40;;;;;;;38.13;20.60;;;307.30;1766.40;;;;;;5096633;28;20016;-69
2021/05/09 05:28:07;;;;;;;37.47;18.33;;;307.40;1740.80;;;;;;5096632;28;20081;-69
2021/05/09 05:30:36;;;;;;;34.05;17.10;;;307.40;1715.20;;;;;;5096982;28;20028;-68
2021/05/09 05:33:03;;;;;;;32.50;18.17;;;307.50;1715.20;;;;;;5096383;28;20036;-69
2021/05/09 05:35:29;;;;;;;29.83;17.23;;;307.60;1689.60;;;;;;5097376;28;20092;-70
2021/05/09 05:37:56;;;;;;;31.35;18.25;;;307.70;1689.60;;;;;;5096754;28;20024;-70
2021/05/09 05:40:25;;;;;;;28.42;16.48;;;307.70;1689.60;;;;;;5096453;28;20024;-69
2021/05/09 05:42:52;;;;;;;31.98;17.60;;;307.80;1689.60;;;;;;5096644;28;20102;-69
2021/05/09 05:45:18;;;;;;;33.65;18.50;;;307.90;1689.60;;;;;;5096512;28;20507;-69
2021/05/09 05:47:45;;;;;;;32.55;17.23;;;307.90;1740.80;;;;;;5096771;28;20016;-69
2021/05/09 05:50:12;;;;;;;28.08;15.32;;;308.00;1715.20;;;;;;5096229;28;20049;-69
2021/05/09 05:52:37;;;;;;;29.92;15.68;;;308.10;1664.00;;;;;;5096066;28;20047;-70
2021/05/09 05:55:04;;;;;;;30.25;15.20;;;308.10;1664.00;;;;;;5095556;28;20024;-69
2021/05/09 05:57:30;;;;;;;28.77;15.95;;;332.80;1664.00;;;;;;5095834;28;20028;-70
2021/05/09 05:59:56;;;;;;;22.77;13.98;;;332.80;1664.00;;;;;;5096074;28;20031;-69
2021/05/09 06:02:22;;;;;;;24.70;14.90;;;333.00;1638.40;;;;;;5095943;28;20032;-70
2021/05/09 06:04:48;;;;;;;26.13;14.40;;;333.00;1664.00;;;;;;5095781;28;20078;-69
2021/05/09 06:07:14;;;;;;;23.63;14.15;;;333.10;1689.60;;;;;;5095514;28;20020;-69
2021/05/09 06:09:40;;;;;;;29.15;15.13;;;333.30;1664.00;;;;;;5095461;28;20418;-69
2021/05/09 06:12:07;;;;;;;28.35;13.52;;;333.30;1638.40;;;;;;5095557;28;20072;-69
2021/05/09 06:14:33;;;;;;;22.80;12.98;;;333.40;1638.40;;;;;;5095961;28;20070;-69
2021/05/09 06:17:00;;;;;;;22.70;12.98;;;333.50;1638.40;;;;;;5095558;28;20480;-69
2021/05/09 06:19:25;;;;;;;22.52;12.50;;;333.60;1612.80;;;;;;5094451;28;20055;-67
2021/05/09 06:21:51;;;;;;;23.63;11.93;;;333.70;1587.20;;;;;;5095046;28;20460;-69
2021/05/09 06:24:17;;;;;;;19.98;12.13;;;358.40;1587.20;;;;;;5094949;28;20111;-69
2021/05/09 06:26:43;;;;;;;22.15;11.98;;;358.60;1612.80;;;;;;5094879;28;20027;-69
2021/05/09 06:29:09;;;;;;;19.10;10.75;;;358.80;1561.60;;;;;;5095516;28;20422;-69
2021/05/09 06:31:35;;;;;;;19.52;11.13;;;358.90;1536.00;;;;;;5094718;28;20096;-69
2021/05/09 06:34:02;;;;;;;22.13;10.27;;;359.10;1510.40;;;;;;5095563;28;20016;-69
2021/05/09 06:36:28;;;;;;;19.73;9.82;;;359.20;1484.80;;;;;;5095489;28;20472;-70
2021/05/09 06:38:54;;;;;;;20.40;11.00;;;384.10;1459.20;;;;;;5095609;28;20023;-70
2021/05/09 06:41:21;;;;;;;21.48;10.27;;;384.30;1459.20;;;;;;5095367;28;20472;-70
2021/05/09 06:43:47;;;;;;;21.85;8.77;;;384.40;1433.60;;;;;;5094712;28;20038;-72
2021/05/09 06:46:14;;;;;;;21.95;8.68;;;384.70;1356.80;;;;;;5094671;28;20027;-74
2021/05/09 06:48:40;;;;;;;18.38;8.82;;;384.80;1356.80;;;;;;5093938;28;20028;-74
2021/05/09 06:51:06;;;;;;;16.25;8.15;;;384.90;1356.80;;;;;;5094257;28;20016;-70
2021/05/09 06:53:32;;;;;;;17.52;7.78;;;409.60;1356.80;;;;;;5091594;28;20090;-70
2021/05/09 06:55:58;;;;;;;18.70;9.18;;;409.70;1331.20;;;;;;5094234;28;20027;-69
2021/05/09 06:58:25;;;;;;;19.77;8.15;;;409.80;1331.20;;;;;;5093598;28;20023;-68
2021/05/09 07:00:51;;;;;;;23.42;7.68;;;409.90;1305.60;;;;;;5093789;28;20024;-68
2021/05/09 07:03:17;;;;;;;18.70;8.02;;;410.00;1280.00;;;;;;5093689;28;20016;-68
2021/05/09 07:05:46;;;;;;;17.38;8.85;;;410.10;1254.40;;;;;;5093367;28;20107;-69
2021/05/09 07:08:12;;;;;;;28.50;9.43;;;410.10;1254.40;;;;;;5090647;28;20012;-69
2021/05/09 07:10:38;;;;;;;17.88;8.40;;;410.20;1228.80;;;;;;5093014;28;20051;-69
2021/05/09 07:13:04;;;;;;;18.42;8.00;;;410.20;1254.40;;;;;;5093205;28;20024;-69
2021/05/09 07:15:36;;;;;;;24.52;8.52;;;410.30;1254.40;;;;;;5093447;28;20040;-70
2021/05/09 07:18:13;;;;;;;49.00;10.43;;;410.40;1254.40;;;;;;5093094;28;20028;-70
2021/05/09 07:20:42;;;;;;;20.10;8.80;;;410.50;1152.00;;;;;;5073732;28;20035;-70
2021/05/09 07:23:09;;;;;;;29.02;9.18;;;435.20;1203.20;;;;;;5075511;28;20024;-70
2021/05/09 07:25:35;;;;;;;24.80;8.98;;;435.20;1126.40;;;;;;5094120;28;20071;-70
2021/05/09 07:28:09;;;;;;;20.23;9.35;;;435.30;1152.00;;;;;;5094302;28;20059;-69
2021/05/09 07:30:35;;;;;;;20.10;8.65;;;435.40;1100.80;;;;;;5093907;28;20469;-69
2021/05/09 07:33:01;;;;;;;17.80;8.60;;;435.40;1100.80;;;;;;5091113;28;20035;-70
2021/05/09 07:35:28;;;;;;;18.02;8.15;;;435.50;1100.80;;;;;;5094019;28;20025;-70
2021/05/09 07:37:54;;;;;;;16.40;8.05;;;435.50;1075.20;;;;;;5093957;28;20035;-70
2021/05/09 07:40:21;;;;;;;18.05;8.75;;;435.50;1075.20;;;;;;5094108;28;20464;-70
2021/05/09 07:42:47;;;;;;;17.15;8.48;;;435.60;1024.00;;;;;;5093297;28;20031;-69
2021/05/09 07:45:21;;;;;;;15.75;8.55;;;435.60;1049.60;;;;;;5093591;28;20492;-67
2021/05/09 07:47:47;;;;;;;18.55;8.20;;;435.70;1049.60;;;;;;5093502;28;20020;-67
2021/05/09 07:50:15;;;;;;;17.92;8.48;;;435.80;1100.80;;;;;;5093835;28;20442;-68
2021/05/09 07:52:45;;;;;;;18.75;9.05;;;435.80;1075.20;;;;;;5093319;28;20035;-67
2021/05/09 07:55:11;;;;;;;14.85;8.32;;;435.90;1024.00;;;;;;5093460;28;20020;-68
2021/05/09 07:57:37;;;;;;;96.28;11.30;;;436.00;1024.00;;;;;;5093451;28;20484;-68
2021/05/09 08:00:10;;;;;;;49.70;9.85;;;436.00;1024.00;;;;;;5093040;28;20024;-69
2021/05/09 08:02:36;;;;;;;14.68;8.55;;;436.00;1024.00;;;;;;5090341;28;20115;-68
2021/05/09 08:05:02;;;;;;;21.58;8.98;;;436.00;1024.00;;;;;;5093654;28;20067;-72
2021/05/09 08:07:28;;;;;;;15.05;8.95;;;436.00;1024.00;;;;;;5094007;28;20084;-70
2021/05/09 08:09:53;;;;;;;18.73;8.40;;;436.10;1049.60;;;;;;5093716;28;20020;-70
2021/05/09 08:12:19;;;;;;;16.25;8.75;;;460.80;1024.00;;;;;;5093170;28;20399;-71
2021/05/09 08:14:45;;;;;;;13.93;8.70;;;460.80;1075.20;;;;;;5093979;28;20110;-70
2021/05/09 08:17:11;;;;;;;17.63;7.68;;;460.90;1049.60;;;;;;5093419;28;20028;-71
2021/05/09 08:19:37;;;;;;;14.98;8.25;;;461.00;1024.00;;;;;;5093469;28;20488;-70
2021/05/09 08:22:04;;;;;;;11.88;7.47;;;461.00;1075.20;;;;;;5092386;28;20047;-70
2021/05/09 08:24:31;;;;;;;16.95;7.43;;;461.00;1049.60;;;;;;5093278;28;20039;-71
2021/05/09 08:26:57;;;;;;;23.55;7.82;;;461.00;998.40;;;;;;5093435;28;20111;-71
2021/05/09 08:29:24;;;;;;;11.25;6.55;;;461.00;972.80;;;;;;5093506;28;20035;-71
2021/05/09 08:31:50;;;;;;;13.18;6.93;;;461.00;1024.00;;;;;;5093075;28;20039;-70
2021/05/09 08:34:16;;;;;;;15.38;6.20;;;461.10;998.40;;;;;;5093024;28;20035;-71
2021/05/09 08:36:43;;;;;;;11.13;6.82;;;461.20;998.40;;;;;;5092817;28;20055;-70
2021/05/09 08:39:08;;;;;;;13.18;6.63;;;461.20;998.40;;;;;;5092751;28;20081;-70
2021/05/09 08:41:41;;;;;;;10.98;6.60;;;461.30;998.40;;;;;;5092710;28;20028;-69
2021/05/09 08:44:09;;;;;;;11.57;6.50;;;461.30;972.80;;;;;;5092940;28;20073;-70
2021/05/09 08:46:36;;;;;;;11.65;6.70;;;461.20;947.20;;;;;;5091615;28;20029;-71
2021/05/09 08:49:06;;;;;;;11.30;6.32;;;461.20;972.80;;;;;;5092113;28;20153;-71
2021/05/09 08:51:32;;;;;;;12.70;6.68;;;461.30;972.80;;;;;;5093292;28;20085;-71
2021/05/09 08:53:59;;;;;;;14.13;7.15;;;461.40;1024.00;;;;;;5092015;28;20028;-71
2021/05/09 08:56:26;;;;;;;12.07;6.47;;;461.40;998.40;;;;;;5093213;28;20448;-71
2021/05/09 08:58:53;;;;;;;11.77;5.97;;;461.40;998.40;;;;;;5093507;28;20081;-72
2021/05/09 09:01:19;;;;;;;9.88;6.30;;;461.40;972.80;;;;;;5093704;28;20032;-70
2021/05/09 09:03:45;;;;;;;7.57;5.32;;;461.50;1024.00;;;;;;5093148;28;20021;-71
2021/05/09 09:06:18;;;;;;;15.07;5.93;;;461.60;947.20;;;;;;5093196;28;20024;-70
2021/05/09 09:08:53;;;;;;;9.17;5.60;;;461.60;947.20;;;;;;5091982;28;20047;-70
2021/05/09 09:11:26;;;;;;;9.02;5.35;;;461.60;947.20;;;;;;5092948;28;20157;-71
2021/05/09 09:14:12;;;;;;;11.40;5.30;;;461.60;921.60;;;;;;5093192;28;20024;-70
2021/05/09 09:16:38;;;;;;;10.77;5.20;;;461.70;921.60;;;;;;5093372;28;20032;-71
2021/05/09 09:19:14;;;;;;;10.45;5.10;;;461.70;896.00;;;;;;5093308;28;20026;-71
2021/05/09 09:21:41;;;;;;;8.60;5.20;;;461.70;921.60;;;;;;5092994;28;20556;-71
2021/05/09 09:24:11;;;;;;;7.32;4.30;;;486.40;947.20;;;;;;5092955;28;20111;-71
2021/05/09 09:26:41;;;;;;;14.68;5.35;;;486.40;947.20;;;;;;5093031;28;20043;-70
2021/05/09 09:29:33;;;;;;;10.98;4.97;;;486.40;947.20;;;;;;5093050;28;20030;-70
2021/05/09 09:32:06;;;;;;;12.93;4.78;;;486.50;947.20;;;;;;5096205;28;20503;-71
2021/05/09 09:34:42;;;;;;;10.85;5.18;;;486.50;870.40;;;;;;5096623;28;20028;-70
2021/05/09 09:37:10;;;;;;;9.95;5.00;;;486.50;896.00;;;;;;5096424;28;20111;-70
2021/05/09 09:39:53;;;;;;;13.05;4.82;;;486.50;896.00;;;;;;5096857;28;20035;-71
2021/05/09 09:42:42;;;;;;;9.25;4.95;;;486.50;921.60;;;;;;5096021;28;20039;-69
2021/05/09 09:45:25;;;;;;;11.63;4.85;;;486.50;921.60;;;;;;5096995;28;20024;-70
2021/05/09 09:48:00;;;;;;;10.45;4.50;;;486.60;870.40;;;;;;5096673;28;20373;-70
2021/05/09 09:50:43;;;;;;;11.95;5.18;;;486.60;921.60;;;;;;5096311;28;20034;-70
2021/05/09 09:53:40;;;;;;;13.75;5.15;;;486.60;921.60;;;;;;5096171;28;20040;-70
2021/05/09 09:56:06;;;;;;;11.27;4.28;;;486.70;947.20;;;;;;5096167;28;20024;-69
2021/05/09 09:58:49;;;;;;;9.55;4.45;;;486.70;896.00;;;;;;5095594;28;20032;-69
2021/05/09 10:01:24;;;;;;;9.90;4.35;;;486.70;896.00;;;;;;5093144;28;20024;-70
2021/05/09 10:03:51;;;;;;;7.50;4.20;;;486.80;896.00;;;;;;5095503;28;20055;-70
2021/05/09 10:06:18;;;;;;;10.63;4.22;;;486.80;870.40;;;;;;5095524;28;20024;-70
2021/05/09 10:08:45;;;;;;;7.55;4.55;;;486.80;844.80;;;;;;5095469;28;20016;-70
2021/05/09 10:11:11;;;;;;;7.25;3.80;;;486.80;896.00;;;;;;5095019;28;20047;-70
2021/05/09 10:13:37;;;;;;;8.20;4.05;;;486.90;870.40;;;;;;5095360;28;20526;-70
2021/05/09 10:16:04;;;;;;;7.80;3.83;;;486.90;870.40;;;;;;5095335;28;20093;-70
2021/05/09 10:18:31;;;;;;;9.35;4.50;;;486.90;844.80;;;;;;5095249;28;20016;-71
2021/05/09 10:20:58;;;;;;;10.63;4.63;;;486.90;844.80;;;;;;5095996;28;20024;-71
2021/05/09 10:23:24;;;;;;;10.13;4.75;;;487.10;844.80;;;;;;5095962;28;20078;-72
2021/05/09 10:26:00;;;;;;;7.50;3.92;;;487.10;870.40;;;;;;5095560;28;20111;-70
2021/05/09 10:28:38;;;;;;;9.57;4.28;;;487.10;844.80;;;;;;5095549;28;20025;-71
2021/05/09 10:31:05;;;;;;;11.05;3.80;;;487.10;819.20;;;;;;5096013;28;20060;-71
2021/05/09 10:33:40;;;;;;;8.40;3.97;;;487.10;819.20;;;;;;5094825;28;20077;-71
2021/05/09 10:36:30;;;;;;;5.57;3.28;;;487.10;870.40;;;;;;5094901;28;20096;-71
2021/05/09 10:39:17;;;;;;;7.22;3.65;;;487.20;921.60;;;;;;5092507;28;20055;-72
2021/05/09 10:41:55;;;;;;;8.27;2.95;;;487.20;819.20;;;;;;5093428;28;20422;-72
2021/05/09 10:44:45;;;;;;;13.05;3.47;;;487.30;793.60;;;;;;5093212;28;20107;-71
2021/05/09 10:47:33;;;;;;;8.23;2.83;;;487.30;768.00;;;;;;5094356;28;20028;-71
2021/05/09 10:50:27;;;;;;;7.10;2.95;;;487.30;793.60;;;;;;5094638;28;20036;-71
2021/05/09 10:52:55;;;;;;;7.55;3.13;;;512.00;819.20;;;;;;5095002;28;20044;-72
2021/05/09 10:55:36;;;;;;;6.72;3.28;;;512.10;870.40;;;;;;5094766;28;20024;-72
2021/05/09 10:58:05;;;;;;;4.72;2.78;;;512.10;742.40;;;;;;5095298;28;20099;-70
2021/05/09 11:01:13;;;;;;;4.32;2.45;;;512.10;716.80;;;;;;5094928;28;20020;-70
2021/05/09 11:03:40;;;;;;;8.07;3.30;;;512.20;844.80;;;;;;5086030;28;20089;-69
2021/05/09 11:06:21;;;;;;;5.53;3.08;;;512.20;793.60;;;;;;5094408;28;20027;-70
2021/05/09 11:09:02;;;;;;;7.25;2.95;;;512.30;768.00;;;;;;5094242;28;20153;-69
2021/05/09 11:11:31;;;;;;;4.95;2.85;;;512.40;742.40;;;;;;5094083;28;20510;-69
2021/05/09 11:14:05;;;;;;;5.95;2.85;;;512.50;768.00;;;;;;5094256;28;20020;-69
2021/05/09 11:16:31;;;;;;;5.75;3.00;;;512.70;768.00;;;;;;5094207;28;20012;-69
2021/05/09 11:18:57;;;;;;;13.45;4.07;;;512.70;742.40;;;;;;5094623;28;20201;-68
2021/05/09 11:21:24;;;;;;;8.68;3.40;;;512.70;793.60;;;;;;5095510;28;20365;-70
2021/05/09 11:23:53;;;;;;;8.20;3.28;;;512.70;793.60;;;;;;5094477;28;20482;-70
2021/05/09 11:26:30;;;;;;;7.50;2.95;;;512.80;844.80;;;;;;5094779;28;20020;-70
2021/05/09 11:29:13;;;;;;;5.90;2.60;;;537.60;819.20;;;;;;5094768;28;20028;-70
2021/05/09 11:31:41;;;;;;;8.68;3.00;;;537.60;742.40;;;;;;5094151;28;20032;-70
2021/05/09 11:34:08;;;;;;;12.90;2.85;;;537.60;768.00;;;;;;5094120;28;20039;-68
2021/05/09 11:36:35;;;;;;;7.47;3.25;;;537.60;793.60;;;;;;5094449;28;20132;-68
2021/05/09 11:39:04;;;;;;;7.15;2.67;;;537.60;844.80;;;;;;5094354;28;20095;-71
2021/05/09 11:41:30;;;;;;;4.97;2.67;;;537.70;793.60;;;;;;5094172;28;20065;-70
2021/05/09 11:44:06;;;;;;;4.43;2.60;;;537.70;768.00;;;;;;5094024;28;20022;-70
2021/05/09 11:46:35;;;;;;;4.75;2.55;;;537.80;742.40;;;;;;5094007;28;20024;-68
2021/05/09 11:49:23;;;;;;;7.60;2.28;;;537.90;742.40;;;;;;5094593;28;20460;-70
2021/05/09 11:51:57;;;;;;;4.95;2.53;;;538.00;768.00;;;;;;5094387;28;20392;-70
2021/05/09 11:54:26;;;;;;;7.40;2.42;;;538.00;742.40;;;;;;5093172;28;20052;-71
2021/05/09 11:57:06;;;;;;;5.60;2.40;;;538.10;742.40;;;;;;5093961;28;20020;-72
2021/05/09 11:59:41;;;;;;;3.78;1.90;;;538.10;768.00;;;;;;5093938;28;20574;-72
2021/05/09 12:02:06;;;;;;;6.53;2.40;;;538.10;742.40;;;;;;5093960;28;20028;-71
2021/05/09 12:04:32;;;;;;;4.05;2.35;;;538.20;716.80;;;;;;5094090;28;20024;-72
2021/05/09 12:07:03;;;;;;;3.53;2.20;;;538.10;716.80;;;;;;5093845;28;20472;-71
2021/05/09 12:09:30;;;;;;;3.90;2.13;;;538.20;716.80;;;;;;5093705;28;20020;-72
2021/05/09 12:11:58;;;;;;;9.45;2.97;;;538.40;716.80;;;;;;5093635;28;20496;-71
2021/05/09 12:14:27;;;;;;;5.20;2.63;;;538.40;691.20;;;;;;5093925;28;20480;-71